sensor_id;sensor_type;location;lat;lon;timestamp;pressure;altitude;pressure_sealevel;temperature;humidity
51926;BME280;37952;51.938;15.480;2023-03-08T00:00:17;97946.95;;;0.61;81.66
51926;BME280;37952;51.938;15.480;2023-03-08T00:03:42;97945.98;;;0.64;81.76
51926;BME280;37952;51.938;15.480;2023-03-08T00:06:45;97954.39;;;0.69;81.74
51926;BME280;37952;51.938;15.480;2023-03-08T00:09:48;97957.65;;;0.66;81.67
51926;BME280;37952;51.938;15.480;2023-03-08T00:12:51;97957.98;;;0.63;81.70
51926;BME280;37952;51.938;15.480;2023-03-08T00:15:58;97957.89;;;0.65;81.72
51926;BME280;37952;51.938;15.480;2023-03-08T00:19:01;97961.19;;;0.68;81.73
51926;BME280;37952;51.938;15.480;2023-03-08T00:22:04;97955.96;;;0.72;81.73
51926;BME280;37952;51.938;15.480;2023-03-08T00:25:08;97964.91;;;0.70;81.76
51926;BME280;37952;51.938;15.480;2023-03-08T00:28:11;97961.23;;;0.64;81.91
51926;BME280;37952;51.938;15.480;2023-03-08T00:31:14;97964.14;;;0.61;81.95
51926;BME280;37952;51.938;15.480;2023-03-08T00:34:18;97966.94;;;0.64;82.03
51926;BME280;37952;51.938;15.480;2023-03-08T00:37:21;97947.14;;;0.50;82.13
51926;BME280;37952;51.938;15.480;2023-03-08T00:40:23;97967.63;;;0.57;82.22
51926;BME280;37952;51.938;15.480;2023-03-08T00:43:27;97971.30;;;0.56;82.30
51926;BME280;37952;51.938;15.480;2023-03-08T00:46:30;97973.58;;;0.56;82.39
51926;BME280;37952;51.938;15.480;2023-03-08T00:49:33;97973.52;;;0.57;82.41
51926;BME280;37952;51.938;15.480;2023-03-08T00:52:36;97983.73;;;0.57;82.36
51926;BME280;37952;51.938;15.480;2023-03-08T00:55:57;97993.00;;;0.55;82.26
51926;BME280;37952;51.938;15.480;2023-03-08T00:59:00;97992.32;;;0.55;82.32
51926;BME280;37952;51.938;15.480;2023-03-08T01:02:03;97992.52;;;0.58;82.28
51926;BME280;37952;51.938;15.480;2023-03-08T01:05:10;97989.65;;;0.56;82.26
51926;BME280;37952;51.938;15.480;2023-03-08T01:08:14;97983.73;;;0.61;82.26
51926;BME280;37952;51.938;15.480;2023-03-08T01:11:23;97986.30;;;0.65;82.27
51926;BME280;37952;51.938;15.480;2023-03-08T01:14:26;97987.96;;;0.67;82.20
51926;BME280;37952;51.938;15.480;2023-03-08T01:17:28;97990.60;;;0.62;82.13
51926;BME280;37952;51.938;15.480;2023-03-08T01:20:32;97993.40;;;0.55;82.05
51926;BME280;37952;51.938;15.480;2023-03-08T01:23:35;97992.23;;;0.54;81.99
51926;BME280;37952;51.938;15.480;2023-03-08T01:26:38;97960.08;;;0.37;82.00
51926;BME280;37952;51.938;15.480;2023-03-08T01:29:42;97984.04;;;0.58;81.93
51926;BME280;37952;51.938;15.480;2023-03-08T01:32:46;97987.68;;;0.62;81.93
51926;BME280;37952;51.938;15.480;2023-03-08T01:35:48;97985.30;;;0.64;81.85
51926;BME280;37952;51.938;15.480;2023-03-08T01:38:51;97994.31;;;0.65;81.80
51926;BME280;37952;51.938;15.480;2023-03-08T01:41:54;97998.45;;;0.65;81.72
51926;BME280;37952;51.938;15.480;2023-03-08T01:45:04;98007.43;;;0.62;81.70
51926;BME280;37952;51.938;15.480;2023-03-08T01:48:08;98011.66;;;0.60;81.62
51926;BME280;37952;51.938;15.480;2023-03-08T01:51:14;98010.92;;;0.61;81.60
51926;BME280;37952;51.938;15.480;2023-03-08T01:54:26;98018.89;;;0.65;81.58
51926;BME280;37952;51.938;15.480;2023-03-08T01:57:32;98021.19;;;0.68;81.46
51926;BME280;37952;51.938;15.480;2023-03-08T02:00:37;98017.63;;;0.66;81.54
51926;BME280;37952;51.938;15.480;2023-03-08T02:03:41;98014.67;;;0.63;81.39
51926;BME280;37952;51.938;15.480;2023-03-08T02:06:44;98019.11;;;0.54;81.37
51926;BME280;37952;51.938;15.480;2023-03-08T02:09:47;98024.83;;;0.54;81.34
51926;BME280;37952;51.938;15.480;2023-03-08T02:12:51;98036.30;;;0.49;81.40
51926;BME280;37952;51.938;15.480;2023-03-08T02:15:54;98044.40;;;0.46;81.35
51926;BME280;37952;51.938;15.480;2023-03-08T02:19:04;98039.35;;;0.47;81.39
51926;BME280;37952;51.938;15.480;2023-03-08T02:22:08;98046.75;;;0.52;81.42
51926;BME280;37952;51.938;15.480;2023-03-08T02:25:32;98054.70;;;0.52;81.27
51926;BME280;37952;51.938;15.480;2023-03-08T02:28:35;98048.95;;;0.45;81.32
51926;BME280;37952;51.938;15.480;2023-03-08T02:31:38;98049.52;;;0.48;81.24
51926;BME280;37952;51.938;15.480;2023-03-08T02:34:41;98055.98;;;0.47;81.32
51926;BME280;37952;51.938;15.480;2023-03-08T02:37:44;98058.63;;;0.50;81.24
51926;BME280;37952;51.938;15.480;2023-03-08T02:40:47;98058.30;;;0.53;81.23
51926;BME280;37952;51.938;15.480;2023-03-08T02:43:53;98058.65;;;0.57;81.20
51926;BME280;37952;51.938;15.480;2023-03-08T02:46:55;98053.65;;;0.60;81.20
51926;BME280;37952;51.938;15.480;2023-03-08T02:49:58;98054.94;;;0.58;81.13
51926;BME280;37952;51.938;15.480;2023-03-08T02:53:06;98052.20;;;0.57;81.13
51926;BME280;37952;51.938;15.480;2023-03-08T02:56:09;98051.75;;;0.60;80.96
51926;BME280;37952;51.938;15.480;2023-03-08T02:59:12;98051.48;;;0.54;80.91
51926;BME280;37952;51.938;15.480;2023-03-08T03:02:15;98054.29;;;0.50;80.84
51926;BME280;37952;51.938;15.480;2023-03-08T03:05:18;98051.09;;;0.48;80.93
51926;BME280;37952;51.938;15.480;2023-03-08T03:08:21;98055.33;;;0.46;80.90
51926;BME280;37952;51.938;15.480;2023-03-08T03:11:26;98056.77;;;0.49;80.95
51926;BME280;37952;51.938;15.480;2023-03-08T03:14:29;98063.79;;;0.50;80.97
51926;BME280;37952;51.938;15.480;2023-03-08T03:17:32;98062.02;;;0.52;80.93
51926;BME280;37952;51.938;15.480;2023-03-08T03:20:35;98062.23;;;0.54;80.99
51926;BME280;37952;51.938;15.480;2023-03-08T03:23:39;98065.73;;;0.57;80.97
51926;BME280;37952;51.938;15.480;2023-03-08T03:26:42;98073.14;;;0.54;80.93
51926;BME280;37952;51.938;15.480;2023-03-08T03:29:45;98074.20;;;0.54;80.84
51926;BME280;37952;51.938;15.480;2023-03-08T03:32:48;98082.58;;;0.53;80.87
51926;BME280;37952;51.938;15.480;2023-03-08T03:35:51;98086.85;;;0.47;80.78
51926;BME280;37952;51.938;15.480;2023-03-08T03:38:54;98084.95;;;0.43;80.80
51926;BME280;37952;51.938;15.480;2023-03-08T03:41:57;98094.09;;;0.44;80.87
51926;BME280;37952;51.938;15.480;2023-03-08T03:45:02;98100.95;;;0.42;80.86
51926;BME280;37952;51.938;15.480;2023-03-08T03:48:05;98094.13;;;0.36;80.86
51926;BME280;37952;51.938;15.480;2023-03-08T03:51:19;98095.82;;;0.32;80.87
51926;BME280;37952;51.938;15.480;2023-03-08T03:54:24;98097.34;;;0.33;80.92
51926;BME280;37952;51.938;15.480;2023-03-08T03:57:27;98098.53;;;0.37;80.97
51926;BME280;37952;51.938;15.480;2023-03-08T04:00:30;98094.98;;;0.40;81.04
51926;BME280;37952;51.938;15.480;2023-03-08T04:03:33;98097.41;;;0.40;80.95
51926;BME280;37952;51.938;15.480;2023-03-08T04:06:36;98106.30;;;0.42;80.98
51926;BME280;37952;51.938;15.480;2023-03-08T04:09:39;98115.37;;;0.45;80.96
51926;BME280;37952;51.938;15.480;2023-03-08T04:12:42;98115.29;;;0.50;80.98
51926;BME280;37952;51.938;15.480;2023-03-08T04:15:44;98113.33;;;0.55;80.95
51926;BME280;37952;51.938;15.480;2023-03-08T04:18:51;98118.05;;;0.58;80.91
51926;BME280;37952;51.938;15.480;2023-03-08T04:21:54;98116.34;;;0.54;80.85
51926;BME280;37952;51.938;15.480;2023-03-08T04:24:57;98115.19;;;0.56;80.77
51926;BME280;37952;51.938;15.480;2023-03-08T04:28:00;98115.16;;;0.57;80.77
51926;BME280;37952;51.938;15.480;2023-03-08T04:31:17;98117.53;;;0.58;80.67
51926;BME280;37952;51.938;15.480;2023-03-08T04:34:21;98112.33;;;0.58;80.63
51926;BME280;37952;51.938;15.480;2023-03-08T04:37:24;98116.17;;;0.61;80.67
51926;BME280;37952;51.938;15.480;2023-03-08T04:40:27;98117.02;;;0.66;80.74
51926;BME280;37952;51.938;15.480;2023-03-08T04:43:31;98118.20;;;0.70;80.67
51926;BME280;37952;51.938;15.480;2023-03-08T04:46:35;98126.20;;;0.66;80.59
51926;BME280;37952;51.938;15.480;2023-03-08T04:49:38;98119.59;;;0.63;80.44
51926;BME280;37952;51.938;15.480;2023-03-08T04:52:40;98120.13;;;0.58;80.43
51926;BME280;37952;51.938;15.480;2023-03-08T04:55:43;98120.15;;;0.58;80.48
51926;BME280;37952;51.938;15.480;2023-03-08T04:58:46;98120.90;;;0.60;80.51
51926;BME280;37952;51.938;15.480;2023-03-08T05:01:49;98129.35;;;0.61;80.43
51926;BME280;37952;51.938;15.480;2023-03-08T05:04:52;98123.95;;;0.58;80.27
51926;BME280;37952;51.938;15.480;2023-03-08T05:07:55;98128.83;;;0.57;80.30
51926;BME280;37952;51.938;15.480;2023-03-08T05:10:59;98132.46;;;0.54;80.27
51926;BME280;37952;51.938;15.480;2023-03-08T05:14:02;98131.11;;;0.53;80.23
51926;BME280;37952;51.938;15.480;2023-03-08T05:17:05;98131.73;;;0.50;80.19
51926;BME280;37952;51.938;15.480;2023-03-08T05:20:09;98134.58;;;0.49;80.21
51926;BME280;37952;51.938;15.480;2023-03-08T05:23:12;98138.10;;;0.52;80.17
51926;BME280;37952;51.938;15.480;2023-03-08T05:26:16;98136.39;;;0.51;80.25
51926;BME280;37952;51.938;15.480;2023-03-08T05:29:19;98137.52;;;0.53;80.27
51926;BME280;37952;51.938;15.480;2023-03-08T05:32:22;98142.02;;;0.54;80.19
51926;BME280;37952;51.938;15.480;2023-03-08T05:35:25;98142.99;;;0.55;80.32
51926;BME280;37952;51.938;15.480;2023-03-08T05:38:28;98140.73;;;0.59;80.27
51926;BME280;37952;51.938;15.480;2023-03-08T05:41:31;98144.76;;;0.62;80.21
51926;BME280;37952;51.938;15.480;2023-03-08T05:44:34;98145.88;;;0.60;80.08
51926;BME280;37952;51.938;15.480;2023-03-08T05:47:37;98145.41;;;0.55;80.08
51926;BME280;37952;51.938;15.480;2023-03-08T05:50:40;98147.82;;;0.59;80.19
51926;BME280;37952;51.938;15.480;2023-03-08T05:53:43;98149.19;;;0.64;80.16
51926;BME280;37952;51.938;15.480;2023-03-08T05:56:46;98145.46;;;0.65;80.15
51926;BME280;37952;51.938;15.480;2023-03-08T05:59:49;98147.52;;;0.66;80.13
51926;BME280;37952;51.938;15.480;2023-03-08T06:02:52;98144.98;;;0.65;80.07
51926;BME280;37952;51.938;15.480;2023-03-08T06:05:55;98151.89;;;0.69;80.15
51926;BME280;37952;51.938;15.480;2023-03-08T06:08:57;98155.66;;;0.74;80.15
51926;BME280;37952;51.938;15.480;2023-03-08T06:12:00;98161.81;;;0.80;80.12
51926;BME280;37952;51.938;15.480;2023-03-08T06:15:03;98166.41;;;0.81;80.08
51926;BME280;37952;51.938;15.480;2023-03-08T06:18:06;98169.44;;;0.80;80.02
51926;BME280;37952;51.938;15.480;2023-03-08T06:21:17;98171.02;;;0.83;79.94
51926;BME280;37952;51.938;15.480;2023-03-08T06:24:21;98177.52;;;0.84;79.96
51926;BME280;37952;51.938;15.480;2023-03-08T06:27:23;98175.48;;;0.84;79.88
51926;BME280;37952;51.938;15.480;2023-03-08T06:30:26;98179.88;;;0.83;79.85
51926;BME280;37952;51.938;15.480;2023-03-08T06:33:31;98182.02;;;0.85;79.79
51926;BME280;37952;51.938;15.480;2023-03-08T06:36:36;98186.58;;;0.84;79.73
51926;BME280;37952;51.938;15.480;2023-03-08T06:39:39;98188.36;;;0.87;79.76
51926;BME280;37952;51.938;15.480;2023-03-08T06:42:44;98192.30;;;0.88;79.68
51926;BME280;37952;51.938;15.480;2023-03-08T06:45:47;98194.17;;;0.89;79.80
51926;BME280;37952;51.938;15.480;2023-03-08T06:48:51;98191.48;;;0.95;79.81
51926;BME280;37952;51.938;15.480;2023-03-08T06:51:54;98190.15;;;0.93;79.65
51926;BME280;37952;51.938;15.480;2023-03-08T06:54:59;98194.90;;;0.92;79.54
51926;BME280;37952;51.938;15.480;2023-03-08T06:58:03;98196.75;;;0.93;79.56
51926;BME280;37952;51.938;15.480;2023-03-08T07:01:06;98197.91;;;0.94;79.59
51926;BME280;37952;51.938;15.480;2023-03-08T07:04:11;98197.15;;;0.96;79.47
51926;BME280;37952;51.938;15.480;2023-03-08T07:07:14;98198.95;;;1.02;79.50
51926;BME280;37952;51.938;15.480;2023-03-08T07:10:18;98198.25;;;0.98;79.46
51926;BME280;37952;51.938;15.480;2023-03-08T07:13:22;98203.70;;;1.08;79.50
51926;BME280;37952;51.938;15.480;2023-03-08T07:16:25;98211.73;;;1.06;79.52
51926;BME280;37952;51.938;15.480;2023-03-08T07:19:30;98213.94;;;1.04;79.40
51926;BME280;37952;51.938;15.480;2023-03-08T07:22:33;98216.58;;;1.00;79.17
51926;BME280;37952;51.938;15.480;2023-03-08T07:25:39;98220.11;;;0.95;79.17
51926;BME280;37952;51.938;15.480;2023-03-08T07:28:42;98223.88;;;0.96;79.20
51926;BME280;37952;51.938;15.480;2023-03-08T07:31:45;98218.92;;;1.01;79.39
51926;BME280;37952;51.938;15.480;2023-03-08T07:34:48;98220.37;;;1.07;79.41
51926;BME280;37952;51.938;15.480;2023-03-08T07:37:50;98214.40;;;1.13;79.42
51926;BME280;37952;51.938;15.480;2023-03-08T07:40:54;98207.05;;;1.11;79.26
51926;BME280;37952;51.938;15.480;2023-03-08T07:43:58;98200.46;;;1.10;79.32
51926;BME280;37952;51.938;15.480;2023-03-08T07:47:00;98205.15;;;1.10;79.15
51926;BME280;37952;51.938;15.480;2023-03-08T07:50:06;98205.21;;;1.09;79.13
51926;BME280;37952;51.938;15.480;2023-03-08T07:53:10;98206.44;;;1.05;78.98
51926;BME280;37952;51.938;15.480;2023-03-08T07:56:12;98213.60;;;1.04;78.84
51926;BME280;37952;51.938;15.480;2023-03-08T07:59:15;98213.48;;;1.03;78.77
51926;BME280;37952;51.938;15.480;2023-03-08T08:02:18;98218.58;;;0.97;78.65
51926;BME280;37952;51.938;15.480;2023-03-08T08:05:21;98221.63;;;0.99;78.76
51926;BME280;37952;51.938;15.480;2023-03-08T08:08:24;98230.21;;;1.05;78.85
51926;BME280;37952;51.938;15.480;2023-03-08T08:11:27;98230.18;;;1.06;78.69
51926;BME280;37952;51.938;15.480;2023-03-08T08:14:31;98237.22;;;1.04;78.53
51926;BME280;37952;51.938;15.480;2023-03-08T08:17:34;98242.82;;;1.03;78.66
51926;BME280;37952;51.938;15.480;2023-03-08T08:20:37;98243.14;;;1.03;78.69
51926;BME280;37952;51.938;15.480;2023-03-08T08:23:41;98244.14;;;1.04;78.60
51926;BME280;37952;51.938;15.480;2023-03-08T08:26:44;98245.78;;;1.02;78.55
51926;BME280;37952;51.938;15.480;2023-03-08T08:29:47;98248.23;;;1.02;78.52
51926;BME280;37952;51.938;15.480;2023-03-08T08:32:52;98244.13;;;1.04;78.57
51926;BME280;37952;51.938;15.480;2023-03-08T08:35:55;98237.25;;;0.99;78.34
51926;BME280;37952;51.938;15.480;2023-03-08T08:38:58;98235.92;;;0.98;78.30
51926;BME280;37952;51.938;15.480;2023-03-08T08:42:01;98230.27;;;0.96;78.46
51926;BME280;37952;51.938;15.480;2023-03-08T08:45:07;98231.46;;;0.93;78.23
51926;BME280;37952;51.938;15.480;2023-03-08T08:48:11;98231.37;;;0.87;77.99
51926;BME280;37952;51.938;15.480;2023-03-08T08:51:14;98228.72;;;0.88;78.07
51926;BME280;37952;51.938;15.480;2023-03-08T08:54:18;98223.39;;;0.83;77.85
51926;BME280;37952;51.938;15.480;2023-03-08T08:57:21;98219.74;;;0.95;78.11
51926;BME280;37952;51.938;15.480;2023-03-08T09:00:24;98212.98;;;1.02;77.93
51926;BME280;37952;51.938;15.480;2023-03-08T09:03:27;98205.77;;;1.08;77.71
51926;BME280;37952;51.938;15.480;2023-03-08T09:06:30;98203.12;;;1.09;77.21
51926;BME280;37952;51.938;15.480;2023-03-08T09:09:33;98190.64;;;1.13;77.10
51926;BME280;37952;51.938;15.480;2023-03-08T09:12:36;98195.27;;;1.10;76.52
51926;BME280;37952;51.938;15.480;2023-03-08T09:15:40;98198.77;;;1.20;76.58
51926;BME280;37952;51.938;15.480;2023-03-08T09:18:43;98201.98;;;1.29;76.69
51926;BME280;37952;51.938;15.480;2023-03-08T09:21:46;98200.78;;;1.36;76.38
51926;BME280;37952;51.938;15.480;2023-03-08T09:24:49;98202.18;;;1.33;75.99
51926;BME280;37952;51.938;15.480;2023-03-08T09:27:53;98200.64;;;1.25;75.93
51926;BME280;37952;51.938;15.480;2023-03-08T09:30:59;98203.46;;;1.24;75.60
51926;BME280;37952;51.938;15.480;2023-03-08T09:34:11;98199.59;;;1.25;75.77
51926;BME280;37952;51.938;15.480;2023-03-08T09:37:17;98196.60;;;1.30;75.90
51926;BME280;37952;51.938;15.480;2023-03-08T09:40:24;98194.72;;;1.36;76.15
51926;BME280;37952;51.938;15.480;2023-03-08T09:43:42;98195.16;;;1.38;76.01
51926;BME280;37952;51.938;15.480;2023-03-08T09:46:52;98200.13;;;1.29;75.61
51926;BME280;37952;51.938;15.480;2023-03-08T09:50:13;98201.30;;;1.30;75.88
51926;BME280;37952;51.938;15.480;2023-03-08T09:53:33;98194.13;;;1.23;75.93
51926;BME280;37952;51.938;15.480;2023-03-08T09:56:49;98191.87;;;1.27;76.12
51926;BME280;37952;51.938;15.480;2023-03-08T09:59:56;98185.90;;;1.39;76.53
51926;BME280;37952;51.938;15.480;2023-03-08T10:03:28;98180.27;;;1.52;76.81
51926;BME280;37952;51.938;15.480;2023-03-08T10:06:47;98172.46;;;1.63;76.96
51926;BME280;37952;51.938;15.480;2023-03-08T10:13:50;98165.30;;;1.77;76.71
51926;BME280;37952;51.938;15.480;2023-03-08T10:17:03;98166.44;;;1.82;76.28
51926;BME280;37952;51.938;15.480;2023-03-08T10:20:36;98162.71;;;1.84;76.22
51926;BME280;37952;51.938;15.480;2023-03-08T10:23:40;98156.73;;;1.75;75.53
51926;BME280;37952;51.938;15.480;2023-03-08T10:26:43;98155.23;;;1.80;75.62
51926;BME280;37952;51.938;15.480;2023-03-08T10:29:52;98161.68;;;1.73;75.04
51926;BME280;37952;51.938;15.480;2023-03-08T10:32:58;98156.52;;;1.65;75.04
51926;BME280;37952;51.938;15.480;2023-03-08T10:36:06;98153.89;;;1.76;75.74
51926;BME280;37952;51.938;15.480;2023-03-08T10:39:14;98147.11;;;1.87;75.75
51926;BME280;37952;51.938;15.480;2023-03-08T10:42:21;98148.71;;;1.93;75.66
51926;BME280;37952;51.938;15.480;2023-03-08T10:45:24;98148.77;;;2.05;75.90
51926;BME280;37952;51.938;15.480;2023-03-08T10:48:30;98143.20;;;2.08;75.47
51926;BME280;37952;51.938;15.480;2023-03-08T10:51:33;98142.58;;;2.18;75.71
51926;BME280;37952;51.938;15.480;2023-03-08T10:54:36;98142.23;;;2.11;74.94
51926;BME280;37952;51.938;15.480;2023-03-08T10:57:41;98139.05;;;2.19;75.76
51926;BME280;37952;51.938;15.480;2023-03-08T11:00:51;98139.61;;;2.21;74.97
51926;BME280;37952;51.938;15.480;2023-03-08T11:04:02;98133.96;;;2.16;74.68
51926;BME280;37952;51.938;15.480;2023-03-08T11:07:14;98133.83;;;2.28;75.45
51926;BME280;37952;51.938;15.480;2023-03-08T11:10:24;98131.91;;;2.39;75.83
51926;BME280;37952;51.938;15.480;2023-03-08T11:13:32;98125.88;;;2.44;75.86
51926;BME280;37952;51.938;15.480;2023-03-08T11:23:26;98108.83;;;2.51;75.03
51926;BME280;37952;51.938;15.480;2023-03-08T11:26:41;98104.73;;;2.59;75.28
51926;BME280;37952;51.938;15.480;2023-03-08T11:30:11;98096.06;;;2.74;75.59
51926;BME280;37952;51.938;15.480;2023-03-08T11:40:23;98076.33;;;2.82;75.71
51926;BME280;37952;51.938;15.480;2023-03-08T11:54:44;98050.38;;;3.08;76.11
51926;BME280;37952;51.938;15.480;2023-03-08T11:57:24;98046.31;;;3.15;76.18
51926;BME280;37952;51.938;15.480;2023-03-08T12:00:37;98044.85;;;3.13;75.72
51926;BME280;37952;51.938;15.480;2023-03-08T12:03:53;98039.35;;;2.93;74.02
51926;BME280;37952;51.938;15.480;2023-03-08T12:07:01;98036.59;;;2.80;73.69
51926;BME280;37952;51.938;15.480;2023-03-08T12:10:22;98032.39;;;2.84;74.43
51926;BME280;37952;51.938;15.480;2023-03-08T12:13:33;98024.31;;;2.94;74.85
51926;BME280;37952;51.938;15.480;2023-03-08T12:16:45;98023.94;;;2.98;74.63
51926;BME280;37952;51.938;15.480;2023-03-08T12:19:50;98018.31;;;2.96;74.30
51926;BME280;37952;51.938;15.480;2023-03-08T12:26:42;98012.58;;;3.02;74.85
51926;BME280;37952;51.938;15.480;2023-03-08T12:33:12;97998.19;;;3.04;75.19
51926;BME280;37952;51.938;15.480;2023-03-08T12:36:16;97996.55;;;3.05;75.33
51926;BME280;37952;51.938;15.480;2023-03-08T12:39:29;97987.81;;;3.05;75.45
51926;BME280;37952;51.938;15.480;2023-03-08T12:42:39;97987.52;;;3.11;75.55
51926;BME280;37952;51.938;15.480;2023-03-08T12:45:43;97985.48;;;3.19;75.84
51926;BME280;37952;51.938;15.480;2023-03-08T12:48:48;97982.27;;;3.26;75.90
51926;BME280;37952;51.938;15.480;2023-03-08T12:52:01;97979.02;;;3.31;75.80
51926;BME280;37952;51.938;15.480;2023-03-08T12:55:20;97970.05;;;3.29;75.73
51926;BME280;37952;51.938;15.480;2023-03-08T12:58:23;97963.55;;;3.31;75.71
51926;BME280;37952;51.938;15.480;2023-03-08T13:01:34;97960.02;;;3.29;75.65
51926;BME280;37952;51.938;15.480;2023-03-08T13:04:39;97953.60;;;3.25;75.76
51926;BME280;37952;51.938;15.480;2023-03-08T13:07:54;97952.65;;;3.26;75.94
51926;BME280;37952;51.938;15.480;2023-03-08T13:11:05;97949.48;;;3.27;75.97
51926;BME280;37952;51.938;15.480;2023-03-08T13:21:31;97942.20;;;3.26;76.24
51926;BME280;37952;51.938;15.480;2023-03-08T13:24:49;97939.15;;;3.28;76.27
51926;BME280;37952;51.938;15.480;2023-03-08T13:28:02;97939.19;;;3.25;76.08
51926;BME280;37952;51.938;15.480;2023-03-08T13:34:32;97940.20;;;3.19;76.10
51926;BME280;37952;51.938;15.480;2023-03-08T13:37:36;97932.64;;;3.14;76.12
51926;BME280;37952;51.938;15.480;2023-03-08T13:40:49;97940.96;;;3.24;76.15
51926;BME280;37952;51.938;15.480;2023-03-08T13:44:03;97937.94;;;3.25;76.11
51926;BME280;37952;51.938;15.480;2023-03-08T13:47:20;97932.77;;;3.24;76.13
51926;BME280;37952;51.938;15.480;2023-03-08T13:50:32;97934.04;;;3.26;76.12
51926;BME280;37952;51.938;15.480;2023-03-08T13:53:36;97935.98;;;3.32;76.28
51926;BME280;37952;51.938;15.480;2023-03-08T13:56:41;97933.91;;;3.37;76.23
51926;BME280;37952;51.938;15.480;2023-03-08T13:59:49;97930.61;;;3.40;76.22
51926;BME280;37952;51.938;15.480;2023-03-08T14:02:53;97932.31;;;3.41;76.20
51926;BME280;37952;51.938;15.480;2023-03-08T14:05:57;97933.65;;;3.39;76.26
51926;BME280;37952;51.938;15.480;2023-03-08T14:09:00;97940.84;;;3.38;76.25
51926;BME280;37952;51.938;15.480;2023-03-08T14:12:06;97941.38;;;3.37;76.21
51926;BME280;37952;51.938;15.480;2023-03-08T14:15:15;97940.30;;;3.36;76.19
51926;BME280;37952;51.938;15.480;2023-03-08T14:18:21;97935.66;;;3.31;76.13
51926;BME280;37952;51.938;15.480;2023-03-08T14:21:29;97931.98;;;3.25;76.22
51926;BME280;37952;51.938;15.480;2023-03-08T14:24:33;97936.86;;;3.26;76.29
51926;BME280;37952;51.938;15.480;2023-03-08T14:27:41;97933.34;;;3.26;76.32
51926;BME280;37952;51.938;15.480;2023-03-08T14:30:47;97925.29;;;3.27;76.19
51926;BME280;37952;51.938;15.480;2023-03-08T14:34:02;97919.83;;;3.25;76.18
51926;BME280;37952;51.938;15.480;2023-03-08T14:43:18;97898.48;;;3.21;76.28
51926;BME280;37952;51.938;15.480;2023-03-08T14:46:22;97895.52;;;3.15;76.20
51926;BME280;37952;51.938;15.480;2023-03-08T14:49:28;97896.77;;;3.12;76.09
51926;BME280;37952;51.938;15.480;2023-03-08T14:52:35;97887.45;;;3.11;76.16
51926;BME280;37952;51.938;15.480;2023-03-08T14:55:40;97888.01;;;3.13;76.18
51926;BME280;37952;51.938;15.480;2023-03-08T14:58:45;97882.91;;;3.14;76.18
51926;BME280;37952;51.938;15.480;2023-03-08T15:01:51;97877.79;;;3.12;76.09
51926;BME280;37952;51.938;15.480;2023-03-08T15:04:54;97875.84;;;3.07;76.05
51926;BME280;37952;51.938;15.480;2023-03-08T15:07:58;97870.30;;;3.06;76.11
51926;BME280;37952;51.938;15.480;2023-03-08T15:11:01;97864.84;;;3.07;76.19
51926;BME280;37952;51.938;15.480;2023-03-08T15:14:04;97856.98;;;3.07;76.12
51926;BME280;37952;51.938;15.480;2023-03-08T15:17:07;97848.09;;;3.08;76.14
51926;BME280;37952;51.938;15.480;2023-03-08T15:20:13;97845.82;;;3.02;76.04
51926;BME280;37952;51.938;15.480;2023-03-08T15:23:20;97839.58;;;2.99;76.06
51926;BME280;37952;51.938;15.480;2023-03-08T15:26:27;97832.20;;;2.97;76.16
51926;BME280;37952;51.938;15.480;2023-03-08T15:29:32;97825.48;;;2.96;76.16
51926;BME280;37952;51.938;15.480;2023-03-08T15:32:35;97821.88;;;2.95;76.05
51926;BME280;37952;51.938;15.480;2023-03-08T15:35:39;97819.20;;;2.93;76.04
51926;BME280;37952;51.938;15.480;2023-03-08T15:38:43;97814.64;;;2.94;76.06
51926;BME280;37952;51.938;15.480;2023-03-08T15:41:46;97817.80;;;2.93;76.07
51926;BME280;37952;51.938;15.480;2023-03-08T15:44:49;97816.93;;;2.91;76.06
51926;BME280;37952;51.938;15.480;2023-03-08T15:48:08;97816.45;;;2.90;75.99
51926;BME280;37952;51.938;15.480;2023-03-08T15:51:17;97816.36;;;2.88;76.06
51926;BME280;37952;51.938;15.480;2023-03-08T15:57:37;97817.02;;;2.89;76.00
51926;BME280;37952;51.938;15.480;2023-03-08T16:00:40;97817.35;;;2.90;76.03
51926;BME280;37952;51.938;15.480;2023-03-08T16:03:46;97820.66;;;2.89;76.06
51926;BME280;37952;51.938;15.480;2023-03-08T16:06:49;97819.16;;;2.85;76.10
51926;BME280;37952;51.938;15.480;2023-03-08T16:09:52;97819.73;;;2.84;76.00
51926;BME280;37952;51.938;15.480;2023-03-08T16:12:55;97802.98;;;2.77;76.03
51926;BME280;37952;51.938;15.480;2023-03-08T16:16:02;97807.04;;;2.84;76.00
51926;BME280;37952;51.938;15.480;2023-03-08T16:19:06;97804.23;;;2.82;75.94
51926;BME280;37952;51.938;15.480;2023-03-08T16:22:09;97802.86;;;2.78;75.84
51926;BME280;37952;51.938;15.480;2023-03-08T16:25:13;97796.55;;;2.76;75.75
51926;BME280;37952;51.938;15.480;2023-03-08T16:28:16;97792.61;;;2.75;75.96
51926;BME280;37952;51.938;15.480;2023-03-08T16:31:21;97787.34;;;2.76;75.91
51926;BME280;37952;51.938;15.480;2023-03-08T16:34:24;97788.02;;;2.74;75.83
51926;BME280;37952;51.938;15.480;2023-03-08T16:37:27;97789.96;;;2.70;75.87
51926;BME280;37952;51.938;15.480;2023-03-08T16:40:31;97783.77;;;2.69;75.90
51926;BME280;37952;51.938;15.480;2023-03-08T16:43:35;97776.01;;;2.71;75.92
51926;BME280;37952;51.938;15.480;2023-03-08T16:46:48;97771.59;;;2.69;75.90
51926;BME280;37952;51.938;15.480;2023-03-08T16:49:52;97769.19;;;2.68;75.96
51926;BME280;37952;51.938;15.480;2023-03-08T16:52:59;97766.77;;;2.65;75.90
51926;BME280;37952;51.938;15.480;2023-03-08T16:56:02;97764.84;;;2.63;75.92
51926;BME280;37952;51.938;15.480;2023-03-08T16:59:06;97771.16;;;2.62;75.95
51926;BME280;37952;51.938;15.480;2023-03-08T17:02:13;97775.52;;;2.64;75.99
51926;BME280;37952;51.938;15.480;2023-03-08T17:05:17;97766.65;;;2.67;76.04
51926;BME280;37952;51.938;15.480;2023-03-08T17:08:19;97760.48;;;2.66;75.98
51926;BME280;37952;51.938;15.480;2023-03-08T17:11:25;97760.16;;;2.62;75.97
51926;BME280;37952;51.938;15.480;2023-03-08T17:14:29;97756.66;;;2.57;76.03
51926;BME280;37952;51.938;15.480;2023-03-08T17:17:34;97760.80;;;2.54;75.88